Time;durP1;ratioP1;P1;durP2;ratioP2;P2;SDS_P1;SDS_P2;PMS_P1;PMS_P2;Temp;Humidity;BMP_temperature;BMP_pressure;BME280_temperature;BME280_humidity;BME280_pressure;Samples;Min_cycle;Max_cycle;Signal;HPM_P1;HPM_P2
2022/11/02 00:01:40;;;;;;;1.10;1.00;;;;;;;15.34;100.00;100613.09;5074103;28;20199;-73
2022/11/02 00:04:08;;;;;;;0.95;0.90;;;;;;;15.18;100.00;100595.59;5089971;28;20281;-72
2022/11/02 00:06:36;;;;;;;1.10;1.00;;;;;;;15.16;100.00;100592.09;5093533;28;20186;-73
2022/11/02 00:09:03;;;;;;;0.80;0.80;;;;;;;15.03;100.00;100605.97;5093845;28;20206;-73
2022/11/02 00:11:30;;;;;;;0.70;0.70;;;;;;;15.03;100.00;100599.88;5091034;28;20203;-73
2022/11/02 00:13:57;;;;;;;1.02;1.00;;;;;;;14.97;100.00;100603.34;5079966;28;20222;-73
2022/11/02 00:16:24;;;;;;;0.90;0.90;;;;;;;15.00;100.00;100605.97;5077368;28;20195;-73
2022/11/02 00:18:55;;;;;;;1.08;1.05;;;;;;;15.05;100.00;100600.78;5073651;28;20302;-73
2022/11/02 00:21:22;;;;;;;1.15;1.08;;;;;;;14.81;100.00;100578.00;5068999;28;20230;-73
2022/11/02 00:23:51;;;;;;;1.52;1.42;;;;;;;14.82;100.00;100554.53;5076696;28;20202;-73
2022/11/02 00:26:18;;;;;;;0.90;0.90;;;;;;;14.85;100.00;100566.72;5073693;28;20255;-73
2022/11/02 00:28:45;;;;;;;1.10;1.05;;;;;;;14.81;100.00;100578.00;5073478;28;20203;-73
2022/11/02 00:31:12;;;;;;;1.00;1.00;;;;;;;14.82;100.00;100587.59;5074500;28;20620;-73
2022/11/02 00:33:39;;;;;;;1.30;1.13;;;;;;;14.82;100.00;100579.75;5073290;28;20219;-73
2022/11/02 00:36:06;;;;;;;1.10;1.00;;;;;;;14.83;100.00;100578.88;5073460;28;20203;-73
2022/11/02 00:38:33;;;;;;;0.80;0.80;;;;;;;14.72;100.00;100572.72;5075071;28;20198;-73
2022/11/02 00:41:01;;;;;;;1.00;1.00;;;;;;;14.92;100.00;100597.22;5074202;28;20209;-73
2022/11/02 00:43:28;;;;;;;1.23;1.13;;;;;;;14.67;100.00;100595.31;5073404;28;20194;-72
2022/11/02 00:45:55;;;;;;;1.13;1.02;;;;;;;14.70;100.00;100590.09;5073203;28;20205;-73
2022/11/02 00:48:22;;;;;;;1.10;1.05;;;;;;;14.69;100.00;100591.88;5073121;28;20290;-73
2022/11/02 00:50:48;;;;;;;1.13;1.00;;;;;;;14.17;100.00;100520.13;5073117;28;20234;-73
2022/11/02 00:53:15;;;;;;;0.80;0.80;;;;;;;14.54;100.00;100593.50;5072981;28;20226;-73
2022/11/02 00:55:42;;;;;;;0.90;0.90;;;;;;;14.45;100.00;100588.22;5073119;28;20578;-73
2022/11/02 00:58:10;;;;;;;0.90;0.90;;;;;;;14.43;100.00;100582.09;5073373;28;20214;-73
2022/11/02 01:00:37;;;;;;;0.90;0.90;;;;;;;14.20;100.00;100577.53;5073166;28;20209;-73
2022/11/02 01:03:04;;;;;;;0.70;0.70;;;;;;;14.20;100.00;100587.97;5073164;28;20202;-73
2022/11/02 01:05:30;;;;;;;0.93;0.90;;;;;;;14.19;100.00;100586.25;5072898;28;20206;-72
2022/11/02 01:07:57;;;;;;;1.10;1.10;;;;;;;14.09;100.00;100580.94;5037964;28;20202;-73
2022/11/02 01:10:26;;;;;;;0.82;0.82;;;;;;;14.12;100.00;100584.44;5072756;28;20199;-73
2022/11/02 01:12:52;;;;;;;1.05;1.00;;;;;;;13.80;100.00;100544.16;5059168;28;20761;-73
2022/11/02 01:15:21;;;;;;;0.93;0.93;;;;;;;14.01;100.00;100570.44;5087963;28;20210;-73
2022/11/02 01:17:48;;;;;;;0.90;0.90;;;;;;;13.93;100.00;100581.63;5072926;28;20197;-73
2022/11/02 01:20:15;;;;;;;0.88;0.88;;;;;;;13.81;100.00;100561.53;5092956;28;20685;-73
2022/11/02 01:22:42;;;;;;;0.90;0.90;;;;;;;13.83;100.00;100571.13;5079154;28;20203;-73
2022/11/02 01:25:09;;;;;;;1.00;1.00;;;;;;;13.80;100.00;100570.25;5072353;28;20203;-73
2022/11/02 01:27:39;;;;;;;0.80;0.80;;;;;;;13.47;100.00;100491.72;5073420;28;20198;-73
2022/11/02 01:30:07;;;;;;;1.10;1.02;;;;;;;13.73;100.00;100558.00;5073531;28;20210;-73
2022/11/02 01:32:35;;;;;;;1.50;1.50;;;;;;;13.79;100.00;100565.88;5090610;28;20709;-72
2022/11/02 01:35:02;;;;;;;1.10;1.00;;;;;;;13.39;100.00;100515.09;5092747;28;20198;-73
2022/11/02 01:37:28;;;;;;;1.17;1.08;;;;;;;13.57;100.00;100558.69;5086586;28;20222;-73
2022/11/02 01:39:55;;;;;;;1.10;1.00;;;;;;;13.55;100.00;100555.22;5086566;28;20581;-73
2022/11/02 01:42:24;;;;;;;1.00;1.00;;;;;;;13.67;100.00;100560.53;5077392;28;20689;-73
2022/11/02 01:44:51;;;;;;;0.90;0.90;;;;;;;13.18;100.00;100489.69;5078539;28;20186;-72
2022/11/02 01:47:22;;;;;;;1.00;1.00;;;;;;;13.45;100.00;100524.72;5036786;28;20199;-72
2022/11/02 01:49:55;;;;;;;1.00;1.00;;;;;;;13.65;100.00;100554.44;5071995;28;20660;-73
2022/11/02 01:52:27;;;;;;;0.90;0.90;;;;;;;13.73;100.00;100566.66;5071442;28;20210;-72
2022/11/02 01:54:59;;;;;;;1.00;1.00;;;;;;;13.71;100.00;100554.50;5072089;28;20211;-72
2022/11/02 01:57:27;;;;;;;0.90;0.90;;;;;;;13.25;100.00;100490.63;5071712;28;20199;-73
2022/11/02 01:59:58;;;;;;;1.00;1.00;;;;;;;13.69;100.00;100564.03;5053214;28;20546;-73
2022/11/02 02:02:26;;;;;;;1.00;1.00;;;;;;;13.62;100.00;100557.03;5071276;28;20290;-73
2022/11/02 02:05:02;;;;;;;0.98;0.98;;;;;;;13.38;100.00;100516.81;5071951;28;20673;-72
2022/11/02 02:07:31;;;;;;;1.60;1.50;;;;;;;13.13;100.00;100475.72;5071786;28;20718;-72
2022/11/02 02:10:00;;;;;;;0.82;0.82;;;;;;;13.39;100.00;100552.44;5071848;28;20202;-72
2022/11/02 02:12:30;;;;;;;0.90;0.90;;;;;;;13.53;100.00;100562.13;5072801;28;20682;-73
2022/11/02 02:14:57;;;;;;;1.05;1.05;;;;;;;13.47;100.00;100560.34;5089193;28;20202;-73
2022/11/02 02:17:33;;;;;;;0.80;0.80;;;;;;;13.57;100.00;100561.28;5089678;28;20190;-73
2022/11/02 02:20:07;;;;;;;0.82;0.82;;;;;;;13.49;100.00;100556.00;5088170;28;20201;-73
2022/11/02 02:23:10;;;;;;;1.13;1.13;;;;;;;13.63;100.00;100561.34;5073308;28;20194;-73
2022/11/02 02:26:05;;;;;;;0.90;0.90;;;;;;;13.53;100.00;100549.97;5071358;28;20581;-73
2022/11/02 02:28:41;;;;;;;0.80;0.80;;;;;;;13.41;100.00;100544.66;5071349;28;20199;-73
2022/11/02 02:31:14;;;;;;;1.15;1.08;;;;;;;13.24;100.00;100509.69;5070818;28;20207;-73
2022/11/02 02:33:48;;;;;;;1.20;1.10;;;;;;;13.48;100.00;100556.00;5052051;28;20226;-73
2022/11/02 02:36:22;;;;;;;0.90;0.90;;;;;;;13.37;100.00;100533.31;5091491;28;20198;-73
2022/11/02 02:38:57;;;;;;;1.05;1.05;;;;;;;13.38;100.00;100553.28;5056459;28;20205;-73
2022/11/02 02:41:33;;;;;;;0.80;0.80;;;;;;;13.35;100.00;100553.25;5079118;28;20201;-73
2022/11/02 02:44:05;;;;;;;1.00;1.00;;;;;;;13.19;100.00;100533.13;5076490;28;20206;-73
2022/11/02 02:46:37;;;;;;;1.05;1.05;;;;;;;13.35;100.00;100558.47;5070868;28;20319;-73
2022/11/02 02:49:07;;;;;;;1.35;1.27;;;;;;;13.25;100.00;100558.34;5074672;28;20195;-73
2022/11/02 02:51:35;;;;;;;0.90;0.90;;;;;;;13.24;100.00;100551.38;5071034;28;20226;-72
2022/11/02 02:54:06;;;;;;;1.20;1.10;;;;;;;13.32;100.00;100555.81;5081460;28;20229;-73
2022/11/02 02:56:39;;;;;;;1.00;1.00;;;;;;;13.32;100.00;100541.91;5090773;28;20203;-73
2022/11/02 02:59:13;;;;;;;1.02;1.02;;;;;;;13.34;100.00;100551.50;5091110;28;20221;-73
2022/11/02 03:01:42;;;;;;;0.75;0.75;;;;;;;13.20;100.00;100534.84;5080341;28;20792;-72
2022/11/02 03:04:11;;;;;;;1.00;1.00;;;;;;;13.39;100.00;100547.22;5078608;28;20204;-72
2022/11/02 03:06:39;;;;;;;0.80;0.80;;;;;;;13.28;100.00;100532.31;5072990;28;20245;-72
2022/11/02 03:09:12;;;;;;;0.90;0.90;;;;;;;13.55;100.00;100557.81;5070817;28;20206;-73
2022/11/02 03:11:49;;;;;;;0.80;0.80;;;;;;;13.55;100.00;100542.19;5070759;28;20214;-72
2022/11/02 03:14:32;;;;;;;0.80;0.80;;;;;;;13.50;100.00;100533.44;5070800;28;20230;-73
2022/11/02 03:17:11;;;;;;;0.90;0.90;;;;;;;13.52;100.00;100527.38;5070068;28;20226;-73
2022/11/02 03:19:44;;;;;;;1.02;1.02;;;;;;;13.46;100.00;100521.22;5070743;28;20658;-73
2022/11/02 03:22:25;;;;;;;0.90;0.90;;;;;;;13.52;100.00;100531.72;5070622;28;20693;-73
2022/11/02 03:24:59;;;;;;;1.30;1.20;;;;;;;13.31;100.00;100501.09;5052920;28;20709;-72
2022/11/02 03:27:40;;;;;;;0.98;0.98;;;;;;;13.45;100.00;100522.94;5070584;28;20603;-73
2022/11/02 03:30:14;;;;;;;0.90;0.90;;;;;;;13.53;100.00;100538.66;5070610;28;20195;-73
2022/11/02 03:32:48;;;;;;;0.90;0.90;;;;;;;13.48;100.00;100535.16;5070615;28;20209;-73
2022/11/02 03:35:19;;;;;;;0.77;0.77;;;;;;;13.36;100.00;100509.84;5084535;28;20220;-73
2022/11/02 03:37:52;;;;;;;1.00;1.00;;;;;;;13.41;100.00;100514.22;5089803;28;20209;-73
2022/11/02 03:40:24;;;;;;;1.05;1.00;;;;;;;13.51;100.00;100529.97;5088719;28;20205;-73
2022/11/02 03:42:53;;;;;;;1.10;1.00;;;;;;;13.52;100.00;100531.72;5054575;28;20256;-73
2022/11/02 03:45:27;;;;;;;0.80;0.80;;;;;;;13.40;100.00;100496.88;5071126;28;20667;-72
2022/11/02 03:47:59;;;;;;;0.90;0.90;;;;;;;13.55;100.00;100531.75;5090235;28;20202;-73
2022/11/02 03:50:26;;;;;;;0.90;0.90;;;;;;;13.41;100.00;100513.38;5088202;28;20233;-73
2022/11/02 03:52:57;;;;;;;0.90;0.90;;;;;;;13.51;100.00;100501.31;5072443;28;20207;-72
2022/11/02 03:55:29;;;;;;;1.00;1.00;;;;;;;13.68;100.00;100515.38;5084865;28;20199;-73
2022/11/02 03:57:57;;;;;;;0.90;0.90;;;;;;;13.47;100.00;100504.75;5081570;28;20202;-73
2022/11/02 04:00:29;;;;;;;1.00;1.00;;;;;;;13.72;100.00;100517.16;5088390;28;20194;-73
2022/11/02 04:02:58;;;;;;;1.00;1.00;;;;;;;13.69;100.00;100520.63;5075054;28;20191;-73
2022/11/02 04:05:29;;;;;;;1.13;1.05;;;;;;;13.76;100.00;100517.22;5069626;28;20202;-73
2022/11/02 04:14:36;;;;;;;0.90;0.90;;;;;;;13.56;100.00;100531.75;5070122;28;20216;-72
2022/11/02 04:16:13;;;;;;;0.88;0.88;;;;;;;13.66;100.00;100527.53;5089881;28;20229;-72
2022/11/02 04:21:25;;;;;;;0.90;0.90;;;;;;;13.30;100.00;100510.66;5080630;28;20749;-73
2022/11/02 04:26:36;;;;;;;1.02;1.02;;;;;;;13.44;100.00;100520.34;5071151;28;20313;-73
2022/11/02 04:29:03;;;;;;;1.10;1.00;;;;;;;13.42;100.00;100509.91;5078184;28;20209;-72
2022/11/02 04:31:31;;;;;;;0.95;0.95;;;;;;;13.54;100.00;100515.25;5073506;28;20414;-74
2022/11/02 04:33:58;;;;;;;1.20;1.10;;;;;;;13.44;100.00;100508.22;5074360;28;20215;-72
2022/11/02 04:36:25;;;;;;;1.20;1.10;;;;;;;13.24;100.00;100468.91;5073768;28;20197;-72
2022/11/02 04:38:51;;;;;;;1.45;1.30;;;;;;;13.49;100.00;100513.44;5074691;28;20190;-72
2022/11/02 04:44:04;;;;;;;0.93;0.93;;;;;;;13.40;100.00;100491.66;5059332;28;20313;-73
2022/11/02 04:46:34;;;;;;;0.80;0.80;;;;;;;13.62;100.00;100512.72;5076099;28;20195;-73
2022/11/02 04:49:01;;;;;;;1.20;1.10;;;;;;;13.53;100.00;100504.81;5073611;28;20199;-72
2022/11/02 04:51:29;;;;;;;0.90;0.90;;;;;;;13.55;100.00;100500.50;5072392;28;20734;-73
2022/11/02 04:53:57;;;;;;;0.88;0.88;;;;;;;13.60;100.00;100504.00;5073247;28;20312;-73
2022/11/02 04:56:25;;;;;;;0.93;0.93;;;;;;;13.54;100.00;100501.34;5088319;28;20285;-73
2022/11/02 04:58:53;;;;;;;0.80;0.80;;;;;;;13.65;100.00;100510.13;5073587;28;20210;-73
2022/11/02 05:01:21;;;;;;;1.10;1.10;;;;;;;13.63;100.00;100510.13;5072810;28;20233;-73
2022/11/02 05:03:50;;;;;;;0.90;0.90;;;;;;;13.72;100.00;100509.34;5078333;28;20205;-73
2022/11/02 05:06:18;;;;;;;0.93;0.93;;;;;;;13.62;100.00;100504.91;5083155;28;20595;-73
2022/11/02 05:08:45;;;;;;;0.95;0.95;;;;;;;13.67;100.00;100517.09;5021228;28;20194;-73
2022/11/02 05:11:13;;;;;;;0.80;0.80;;;;;;;13.73;100.00;100526.72;5072790;28;20210;-73
2022/11/02 05:13:41;;;;;;;1.25;1.15;;;;;;;13.66;100.00;100509.28;5072638;28;20245;-73
2022/11/02 05:16:11;;;;;;;0.90;0.90;;;;;;;13.69;100.00;100498.88;5072712;28;20278;-73
2022/11/02 05:18:38;;;;;;;13.25;8.18;;;;;;;13.68;100.00;100529.28;5072787;28;20321;-73
2022/11/02 05:21:07;;;;;;;0.90;0.90;;;;;;;13.79;100.00;100532.88;5072643;28;20203;-73
2022/11/02 05:23:33;;;;;;;0.90;0.90;;;;;;;13.68;100.00;100539.72;5053656;28;20195;-73
2022/11/02 05:26:02;;;;;;;0.93;0.93;;;;;;;13.75;100.00;100522.38;5071654;28;20681;-73
2022/11/02 05:28:29;;;;;;;0.80;0.80;;;;;;;13.66;100.00;100509.28;5072902;28;20284;-73
2022/11/02 05:30:59;;;;;;;2.33;2.13;;;;;;;13.91;100.00;100548.59;5072515;28;20202;-73
2022/11/02 05:33:27;;;;;;;1.10;1.10;;;;;;;13.76;100.00;100545.00;5072293;28;20198;-73
2022/11/02 05:35:55;;;;;;;1.02;1.00;;;;;;;13.78;100.00;100541.53;5069692;28;20222;-73
2022/11/02 05:38:23;;;;;;;1.00;1.00;;;;;;;13.78;100.00;100545.88;5069118;28;20210;-73
2022/11/02 05:40:53;;;;;;;1.00;1.00;;;;;;;13.71;100.00;100536.25;5070898;28;20260;-73
2022/11/02 05:43:20;;;;;;;0.75;0.75;;;;;;;13.72;100.00;100556.25;5069830;28;20206;-73
2022/11/02 05:45:52;;;;;;;0.88;0.88;;;;;;;13.53;100.00;100516.09;5073784;28;20191;-74
2022/11/02 05:48:18;;;;;;;0.88;0.88;;;;;;;13.66;100.00;100554.44;5073110;28;20194;-74
2022/11/02 05:50:45;;;;;;;0.90;0.90;;;;;;;13.78;100.00;100551.09;5072546;28;20231;-73
2022/11/02 05:53:12;;;;;;;0.90;0.90;;;;;;;13.77;100.00;100546.72;5077436;28;20202;-73
2022/11/02 05:55:40;;;;;;;0.90;0.90;;;;;;;14.01;100.00;100533.94;5067472;28;20221;-72
2022/11/02 05:58:07;;;;;;;1.17;1.17;;;;;;;14.32;100.00;100546.34;5067921;28;20268;-72
2022/11/02 06:00:34;;;;;;;0.70;0.70;;;;;;;14.44;100.00;100556.03;5063007;28;20268;-72
2022/11/02 06:03:00;;;;;;;0.82;0.82;;;;;;;14.45;100.00;100565.59;5061660;28;20612;-73
2022/11/02 06:05:27;;;;;;;2.95;1.83;;;;;;;14.50;100.00;100573.44;5069691;28;20262;-73
2022/11/02 06:07:58;;;;;;;0.80;0.80;;;;;;;14.62;100.00;100550.06;5085121;28;20595;-73
2022/11/02 06:10:25;;;;;;;5.50;1.77;;;;;;;14.16;100.00;100583.56;5082679;28;20229;-73
2022/11/02 06:12:56;;;;;;;1.02;1.02;;;;;;;14.33;100.00;100589.84;5063980;28;20198;-71
2022/11/02 06:15:23;;;;;;;0.70;0.70;;;;;;;14.02;100.00;100581.75;5066111;28;20754;-72
2022/11/02 06:17:50;;;;;;;0.80;0.80;;;;;;;14.07;100.00;100606.09;5063272;28;20200;-71
2022/11/02 06:20:17;;;;;;;0.98;0.98;;;;;;;14.14;100.00;100600.97;5058861;28;20203;-72
2022/11/02 06:22:44;;;;;;;0.88;0.88;;;;;;;13.98;100.00;100586.06;5064820;28;20211;-73
2022/11/02 06:25:12;;;;;;;0.80;0.80;;;;;;;14.02;100.00;100603.44;5068988;28;20211;-71
2022/11/02 06:27:40;;;;;;;1.00;1.00;;;;;;;14.00;100.00;100591.25;5064307;28;20215;-69
2022/11/02 06:30:09;;;;;;;0.80;0.80;;;;;;;14.41;100.00;100602.97;5069706;28;20289;-72
2022/11/02 06:32:36;;;;;;;0.70;0.70;;;;;;;14.36;100.00;100605.53;5067814;28;20225;-72
2022/11/02 06:35:03;;;;;;;0.70;0.70;;;;;;;14.44;100.00;100603.00;5064054;28;20248;-72
2022/11/02 06:37:33;;;;;;;0.90;0.90;;;;;;;14.43;100.00;100561.22;5057531;28;20216;-72
2022/11/02 06:40:00;;;;;;;0.85;0.85;;;;;;;14.61;100.00;100616.16;5069916;28;20625;-72
2022/11/02 06:42:27;;;;;;;0.95;0.90;;;;;;;14.73;100.00;100611.03;5056649;28;20273;-71
2022/11/02 06:45:01;;;;;;;1.20;1.20;;;;;;;14.35;100.00;100543.78;5069881;28;20203;-72
2022/11/02 06:47:31;;;;;;;0.85;0.85;;;;;;;15.06;100.00;100606.00;5065140;28;20617;-72
2022/11/02 06:49:58;;;;;;;0.85;0.85;;;;;;;15.07;100.00;100605.13;5057580;28;20290;-72
2022/11/02 06:52:25;;;;;;;0.85;0.85;;;;;;;14.97;100.00;100585.06;5057930;28;20202;-71
2022/11/02 06:54:52;;;;;;;0.90;0.90;;;;;;;15.14;100.00;100606.91;5057674;28;20223;-72
2022/11/02 06:57:18;;;;;;;0.90;0.90;;;;;;;15.50;100.00;100581.81;5047743;28;20204;-72
2022/11/02 06:59:45;;;;;;;0.70;0.70;;;;;;;15.50;100.00;100594.88;5058282;28;20202;-73
2022/11/02 07:02:12;;;;;;;1.00;1.00;;;;;;;15.55;100.00;100587.94;5063259;28;20647;-75
2022/11/02 07:04:41;;;;;;;0.82;0.82;;;;;;;15.82;100.00;100581.03;5069676;28;20255;-71
2022/11/02 07:07:07;;;;;;;0.90;0.90;;;;;;;15.88;100.00;100573.19;5058712;28;20208;-70
2022/11/02 07:09:34;;;;;;;0.85;0.85;;;;;;;15.98;100.00;100573.22;5067884;28;20199;-70
2022/11/02 07:12:01;;;;;;;0.70;0.70;;;;;;;16.19;100.00;100594.16;5070171;28;20198;-78
2022/11/02 07:14:28;;;;;;;1.27;1.27;;;;;;;16.24;100.00;100579.31;5069938;28;20238;-72
2022/11/02 07:16:55;;;;;;;0.80;0.80;;;;;;;16.24;100.00;100588.03;5069022;28;20218;-74
2022/11/02 07:19:22;;;;;;;0.77;0.77;;;;;;;16.30;100.00;100590.66;5055783;28;20246;-76
2022/11/02 07:21:50;;;;;;;1.10;1.10;;;;;;;16.39;100.00;100592.41;5050854;28;20218;-73
2022/11/02 07:24:16;;;;;;;0.93;0.93;;;;;;;16.35;98.78;100590.66;5062568;28;20199;-71
2022/11/02 07:26:43;;;;;;;0.77;0.77;;;;;;;16.34;97.75;100597.63;5052674;28;20263;-71
2022/11/02 07:29:10;;;;;;;1.15;1.00;;;;;;;16.43;97.45;100593.28;5069921;28;20199;-71
2022/11/02 07:31:37;;;;;;;0.85;0.85;;;;;;;16.51;96.64;100595.03;5070148;28;20206;-71
2022/11/02 07:34:03;;;;;;;0.90;0.90;;;;;;;16.44;97.33;100580.19;5069789;28;20202;-71
2022/11/02 07:36:30;;;;;;;0.90;0.90;;;;;;;16.32;98.49;100557.53;5068838;28;20203;-71
2022/11/02 07:38:58;;;;;;;0.70;0.70;;;;;;;16.63;100.00;100576.69;5066095;28;20203;-71
2022/11/02 07:41:25;;;;;;;0.85;0.85;;;;;;;16.68;99.24;100574.97;5069525;28;20221;-72
2022/11/02 07:43:52;;;;;;;1.00;1.00;;;;;;;16.81;98.96;100568.81;5068253;28;20214;-73
2022/11/02 07:46:19;;;;;;;0.70;0.70;;;;;;;17.05;96.51;100567.00;5057223;28;20210;-73
2022/11/02 07:48:46;;;;;;;0.95;0.95;;;;;;;17.25;95.63;100571.28;5070457;28;20256;-73
2022/11/02 07:51:13;;;;;;;0.95;0.95;;;;;;;17.45;100.00;100562.44;5059727;28;20714;-71
2022/11/02 07:53:40;;;;;;;1.00;1.00;;;;;;;17.66;98.16;100557.09;5073867;28;20195;-73
2022/11/02 07:56:08;;;;;;;2.92;1.98;;;;;;;17.82;94.56;100556.13;5037869;28;20218;-73
2022/11/02 07:58:35;;;;;;;0.70;0.70;;;;;;;17.82;93.19;100549.13;5073556;28;20214;-73
2022/11/02 08:01:02;;;;;;;0.90;0.90;;;;;;;18.00;90.92;100553.38;5037975;28;20214;-73
2022/11/02 08:03:29;;;;;;;1.15;1.00;;;;;;;18.10;90.13;100549.78;5073347;28;20199;-73
2022/11/02 08:05:56;;;;;;;1.48;1.23;;;;;;;18.20;89.10;100551.44;5058966;28;20290;-73
2022/11/02 08:08:24;;;;;;;0.70;0.70;;;;;;;18.40;87.34;100553.03;5073298;28;20195;-72
2022/11/02 08:10:52;;;;;;;0.93;0.93;;;;;;;18.52;86.47;100547.69;5073540;28;20235;-73
2022/11/02 08:13:22;;;;;;;0.90;0.90;;;;;;;18.69;85.68;100545.78;5073408;28;20191;-73
2022/11/02 08:15:50;;;;;;;1.25;1.15;;;;;;;18.72;85.59;100545.75;5073207;28;20702;-73
2022/11/02 08:18:19;;;;;;;1.17;1.00;;;;;;;18.84;84.62;100540.34;5073198;28;20286;-73
2022/11/02 08:20:46;;;;;;;0.90;0.90;;;;;;;18.78;83.78;100541.28;5073037;28;20678;-73
2022/11/02 08:23:13;;;;;;;0.90;0.90;;;;;;;19.00;83.96;100539.28;5073095;28;20226;-73
2022/11/02 08:25:41;;;;;;;1.00;1.00;;;;;;;19.15;82.68;100533.84;5073309;28;20260;-73
2022/11/02 08:28:12;;;;;;;0.90;0.90;;;;;;;19.26;81.65;100531.94;5072928;28;20198;-73
2022/11/02 08:30:40;;;;;;;0.70;0.70;;;;;;;19.43;81.58;100541.41;5073080;28;20203;-73
2022/11/02 08:33:09;;;;;;;1.23;0.95;;;;;;;19.55;80.80;100546.50;5072897;28;20620;-73
2022/11/02 08:35:36;;;;;;;0.82;0.82;;;;;;;19.29;79.53;100497.72;5073107;28;20222;-72
2022/11/02 08:38:04;;;;;;;0.90;0.90;;;;;;;19.51;79.87;100547.44;5073019;28;20252;-72
2022/11/02 08:40:31;;;;;;;0.77;0.77;;;;;;;19.77;79.67;100545.28;5073313;28;20210;-73
2022/11/02 08:42:59;;;;;;;1.10;1.00;;;;;;;19.90;77.67;100541.59;5072666;28;20210;-72
2022/11/02 08:45:26;;;;;;;1.60;1.55;;;;;;;20.01;77.00;100534.34;5072737;28;20209;-72
2022/11/02 08:47:54;;;;;;;1.00;1.00;;;;;;;20.17;75.74;100511.28;5072927;28;20210;-72
2022/11/02 08:50:21;;;;;;;0.80;0.80;;;;;;;20.36;75.86;100538.22;5072542;28;20227;-72
2022/11/02 08:52:48;;;;;;;0.80;0.80;;;;;;;20.40;74.97;100537.28;5072862;28;20199;-72
2022/11/02 08:55:15;;;;;;;0.90;0.90;;;;;;;20.51;74.69;100527.41;5072324;28;20233;-73
2022/11/02 08:57:46;;;;;;;1.20;1.10;;;;;;;20.63;73.36;100527.16;5072661;28;20191;-73
2022/11/02 09:00:13;;;;;;;0.88;0.88;;;;;;;20.51;72.73;100475.56;5071487;28;20713;-73
2022/11/02 09:02:41;;;;;;;1.08;1.08;;;;;;;20.86;69.01;100519.69;5072143;28;20198;-72
2022/11/02 09:05:09;;;;;;;1.23;1.10;;;;;;;21.34;63.86;100515.19;5072379;28;20211;-72
2022/11/02 09:07:36;;;;;;;1.85;1.75;;;;;;;21.41;61.53;100515.91;5072445;28;20213;-72
2022/11/02 09:10:03;;;;;;;1.38;1.10;;;;;;;21.67;58.81;100490.66;5072276;28;20203;-72
2022/11/02 09:12:31;;;;;;;1.02;0.98;;;;;;;21.87;58.39;100508.66;5072611;28;20203;-72
2022/11/02 09:14:58;;;;;;;0.80;0.80;;;;;;;22.13;57.87;100501.00;5071842;28;20222;-72
2022/11/02 09:17:24;;;;;;;1.48;1.30;;;;;;;22.28;56.06;100490.94;5072573;28;20210;-74
2022/11/02 09:19:51;;;;;;;0.88;0.88;;;;;;;22.47;55.35;100486.91;5072019;28;20202;-74
2022/11/02 09:22:19;;;;;;;1.20;1.10;;;;;;;22.86;54.81;100493.78;5071766;28;20206;-72
2022/11/02 09:24:46;;;;;;;1.05;1.05;;;;;;;22.72;53.31;100491.50;5036613;28;20214;-74
2022/11/02 09:27:13;;;;;;;1.23;1.13;;;;;;;22.57;53.47;100467.25;5071717;28;20777;-74
2022/11/02 09:29:39;;;;;;;1.00;1.00;;;;;;;22.87;53.02;100468.16;5071731;28;20198;-73
2022/11/02 09:32:06;;;;;;;2.20;1.42;;;;;;;23.07;53.00;100492.28;5071848;28;20206;-72
2022/11/02 09:34:33;;;;;;;1.45;1.35;;;;;;;22.91;52.60;100464.53;5071764;28;20673;-73
2022/11/02 09:37:00;;;;;;;1.40;1.30;;;;;;;23.10;51.74;100469.25;5071715;28;20207;-73
2022/11/02 09:39:28;;;;;;;0.90;0.90;;;;;;;23.32;51.17;100484.47;5071765;28;20285;-73
2022/11/02 09:42:05;;;;;;;1.63;1.50;;;;;;;23.46;50.59;100474.34;5071692;28;20206;-72
2022/11/02 09:44:43;;;;;;;1.30;1.20;;;;;;;23.53;50.34;100473.25;5072061;28;20205;-72
2022/11/02 09:47:12;;;;;;;0.93;0.93;;;;;;;23.54;50.77;100464.38;5071893;28;20195;-73
2022/11/02 09:49:41;;;;;;;0.90;0.90;;;;;;;23.71;51.01;100475.28;5071452;28;20213;-72
2022/11/02 09:52:15;;;;;;;0.82;0.82;;;;;;;23.77;50.11;100464.50;5071296;28;20245;-73
2022/11/02 09:54:49;;;;;;;1.05;1.05;;;;;;;23.77;49.69;100461.84;5071459;28;20198;-73
2022/11/02 09:57:21;;;;;;;0.90;0.90;;;;;;;23.29;49.62;100371.63;5071836;28;20203;-72
2022/11/02 09:59:49;;;;;;;1.10;1.08;;;;;;;23.93;48.73;100456.91;5071492;28;20199;-72
2022/11/02 10:02:24;;;;;;;0.90;0.90;;;;;;;24.08;48.91;100438.69;5035905;28;20220;-72
2022/11/02 10:05:16;;;;;;;1.08;1.05;;;;;;;24.16;48.25;100443.75;5071085;28;20194;-73
2022/11/02 10:08:06;;;;;;;0.68;0.68;;;;;;;24.22;48.08;100440.94;5070875;28;20195;-74
2022/11/02 10:10:37;;;;;;;1.40;1.20;;;;;;;24.24;48.23;100417.00;5071223;28;20194;-72
2022/11/02 10:13:18;;;;;;;0.90;0.90;;;;;;;24.39;47.38;100437.66;5070566;28;20230;-72
2022/11/02 10:15:49;;;;;;;0.93;0.93;;;;;;;24.41;47.16;100441.97;5070923;28;20229;-72
2022/11/02 10:18:20;;;;;;;1.33;1.33;;;;;;;24.55;47.84;100436.19;5052294;28;20210;-74
2022/11/02 10:20:50;;;;;;;0.90;0.90;;;;;;;24.67;46.69;100433.94;5071010;28;20201;-72
2022/11/02 10:23:23;;;;;;;1.00;1.00;;;;;;;24.62;46.87;100437.69;5070729;28;20206;-72
2022/11/02 10:25:51;;;;;;;1.10;1.00;;;;;;;24.63;46.41;100418.19;5070482;28;20199;-74
2022/11/02 10:28:21;;;;;;;0.90;0.90;;;;;;;24.81;45.88;100411.34;5070761;28;20195;-75
2022/11/02 10:30:50;;;;;;;1.08;0.98;;;;;;;24.95;44.49;100427.63;5070911;28;20201;-72
2022/11/02 10:33:19;;;;;;;1.20;1.10;;;;;;;25.12;43.71;100428.72;5070568;28;20191;-72
2022/11/02 10:35:53;;;;;;;3.25;3.05;;;;;;;25.38;43.93;100429.47;5070413;28;20226;-72
2022/11/02 10:38:34;;;;;;;0.60;0.60;;;;;;;25.36;43.32;100407.44;5070608;28;20202;-72
2022/11/02 10:41:23;;;;;;;1.38;1.27;;;;;;;25.39;42.27;100407.31;5070623;28;20198;-73
2022/11/02 10:44:11;;;;;;;2.03;1.60;;;;;;;25.56;41.59;100426.09;5070575;28;20199;-73
2022/11/02 10:46:54;;;;;;;0.80;0.80;;;;;;;25.52;42.26;100411.22;5070404;28;20686;-73
2022/11/02 10:49:56;;;;;;;1.45;1.40;;;;;;;25.72;41.92;100421.03;5070523;28;20207;-73
2022/11/02 10:52:24;;;;;;;0.80;0.80;;;;;;;25.49;41.30;100417.50;5070435;28;20194;-73
2022/11/02 10:54:52;;;;;;;0.90;0.90;;;;;;;25.71;41.08;100414.84;5067223;28;20222;-72
2022/11/02 10:57:23;;;;;;;0.80;0.80;;;;;;;25.97;41.27;100401.31;5070320;28;20194;-73
2022/11/02 11:00:22;;;;;;;1.70;1.55;;;;;;;25.82;40.39;100411.75;5069831;28;20194;-73
2022/11/02 11:03:03;;;;;;;1.00;1.00;;;;;;;25.85;40.57;100406.28;5062979;28;20237;-72
2022/11/02 11:05:30;;;;;;;1.30;1.20;;;;;;;25.87;40.40;100401.75;5070371;28;20206;-73
2022/11/02 11:07:57;;;;;;;0.95;0.95;;;;;;;25.75;40.44;100403.19;5069844;28;20674;-72
2022/11/02 11:10:24;;;;;;;0.70;0.70;;;;;;;25.84;40.32;100401.91;5070395;28;20707;-71
2022/11/02 11:12:54;;;;;;;0.95;0.95;;;;;;;26.07;40.06;100401.78;5069890;28;20202;-71
2022/11/02 11:15:23;;;;;;;1.02;1.00;;;;;;;26.05;40.18;100400.97;5060395;28;20227;-72
2022/11/02 11:17:51;;;;;;;1.17;1.17;;;;;;;26.06;40.02;100394.75;5030974;28;20207;-73
2022/11/02 11:20:31;;;;;;;1.77;1.70;;;;;;;26.20;40.03;100405.66;5051281;28;20599;-72
2022/11/02 11:23:15;;;;;;;0.73;0.73;;;;;;;26.21;39.36;100401.22;5069631;28;20281;-75
2022/11/02 11:25:42;;;;;;;0.90;0.90;;;;;;;26.08;39.73;100383.09;5070005;28;20701;-72
2022/11/02 11:28:23;;;;;;;21.45;19.13;;;;;;;26.20;39.17;100391.50;5069725;28;20298;-73
2022/11/02 11:31:02;;;;;;;0.95;0.95;;;;;;;26.32;39.06;100383.00;5069918;28;20272;-72
2022/11/02 11:33:31;;;;;;;1.02;1.00;;;;;;;26.18;38.62;100372.13;5051205;28;20218;-72
2022/11/02 11:35:59;;;;;;;1.02;0.93;;;;;;;26.38;38.68;100385.38;5060682;28;20242;-73
2022/11/02 11:38:27;;;;;;;0.80;0.80;;;;;;;26.38;39.00;100380.91;5069686;28;20203;-72
2022/11/02 11:40:57;;;;;;;0.80;0.80;;;;;;;26.38;37.63;100386.25;5069996;28;20260;-73
2022/11/02 11:43:28;;;;;;;0.88;0.88;;;;;;;26.49;37.41;100383.97;5069621;28;20206;-72
2022/11/02 11:45:57;;;;;;;0.70;0.70;;;;;;;26.44;36.72;100374.44;5051002;28;20210;-72